createdAt,value
2018-06-15T00:00:09.660Z,96.27
2018-06-15T00:02:38.910Z,96.37
2018-06-15T00:05:08.087Z,96.76
2018-06-15T00:07:37.279Z,96.43
2018-06-15T00:10:06.483Z,96.94
2018-06-15T00:12:35.674Z,97.25
2018-06-15T00:15:22.411Z,97.22
2018-06-15T00:17:54.180Z,97.61
2018-06-15T00:20:23.375Z,97.74
2018-06-15T00:22:52.595Z,97.48
2018-06-15T00:25:21.880Z,97.42
2018-06-15T00:27:51.140Z,97.94
2018-06-15T00:30:20.423Z,97.74
2018-06-15T00:32:49.606Z,97.30
2018-06-15T00:35:18.777Z,97.83
2018-06-15T00:37:47.975Z,97.83
2018-06-15T00:40:17.200Z,97.95
2018-06-15T00:42:46.505Z,98.22
2018-06-15T00:45:15.725Z,99.01
2018-06-15T00:47:45.368Z,98.79
2018-06-15T00:50:14.564Z,98.80
2018-06-15T00:52:44.076Z,99.18
2018-06-15T00:55:13.241Z,99.07
2018-06-15T00:57:46.570Z,99.06
2018-06-15T01:00:16.245Z,99.67
2018-06-15T01:02:45.409Z,99.75
2018-06-15T01:05:14.695Z,98.86
2018-06-15T01:07:43.866Z,99.11
2018-06-15T01:10:12.988Z,98.32
2018-06-15T01:12:42.146Z,98.57
2018-06-15T01:15:11.301Z,98.37
2018-06-15T01:17:40.510Z,98.35
2018-06-15T01:20:09.703Z,98.45
2018-06-15T01:22:38.861Z,98.74
2018-06-15T01:25:07.981Z,98.56
2018-06-15T01:27:37.191Z,98.68
2018-06-15T01:30:07.016Z,99.08
2018-06-15T01:32:36.210Z,98.90
2018-06-15T01:35:05.361Z,99.00
2018-06-15T01:37:34.810Z,99.19
2018-06-15T01:40:04.262Z,99.12
2018-06-15T01:42:33.463Z,99.05
2018-06-15T01:45:02.628Z,99.05
2018-06-15T01:47:31.792Z,99.07
2018-06-15T01:50:00.921Z,98.80
2018-06-15T01:52:30.252Z,98.77
2018-06-15T01:54:59.370Z,98.97
2018-06-15T01:57:28.554Z,98.54
2018-06-15T01:59:58.058Z,98.69
2018-06-15T02:02:27.244Z,98.57
2018-06-15T02:04:56.443Z,98.26
2018-06-15T02:07:25.592Z,98.20
2018-06-15T02:09:54.878Z,98.17
2018-06-15T02:12:24.174Z,98.39
2018-06-15T02:14:54.011Z,98.52
2018-06-15T02:17:23.205Z,98.45
2018-06-15T02:19:52.397Z,99.44
2018-06-15T02:22:21.586Z,99.13
2018-06-15T02:24:50.786Z,99.12
2018-06-15T02:27:19.941Z,99.02
2018-06-15T02:29:49.183Z,99.63
2018-06-15T02:32:18.351Z,99.71
2018-06-15T02:34:47.465Z,99.56
2018-06-15T02:37:16.633Z,99.70
2018-06-15T02:39:45.792Z,99.49
2018-06-15T02:42:14.999Z,98.96
2018-06-15T02:44:44.138Z,99.13
2018-06-15T02:47:13.316Z,99.70
2018-06-15T02:49:59.163Z,99.34
2018-06-15T02:52:30.994Z,99.09
2018-06-15T02:55:00.204Z,99.23
2018-06-15T02:57:29.449Z,98.93
2018-06-15T02:59:58.615Z,98.83
2018-06-15T03:02:28.105Z,99.30
2018-06-15T03:04:57.261Z,99.64
2018-06-15T03:07:26.482Z,99.72
2018-06-15T03:09:55.690Z,99.11
2018-06-15T03:12:24.898Z,99.10
2018-06-15T03:14:54.076Z,99.34
2018-06-15T03:17:23.197Z,99.56
2018-06-15T03:19:52.376Z,98.37
2018-06-15T03:22:21.441Z,98.68
2018-06-15T03:24:50.591Z,98.60
2018-06-15T03:27:19.697Z,98.08
2018-06-15T03:29:48.874Z,98.53
2018-06-15T03:32:18.055Z,98.84
2018-06-15T03:34:47.208Z,99.00
2018-06-15T03:37:16.358Z,99.18
2018-06-15T03:39:45.490Z,99.40
2018-06-15T03:42:14.653Z,99.62
2018-06-15T03:44:43.843Z,99.74
2018-06-15T03:47:13.437Z,99.86
2018-06-15T03:49:42.632Z,99.79
2018-06-15T03:52:11.787Z,99.56
2018-06-15T03:54:41.044Z,99.78
2018-06-15T03:57:10.246Z,99.84
2018-06-15T03:59:39.466Z,99.84
2018-06-15T04:02:08.633Z,99.99
2018-06-15T04:04:37.790Z,100.00
2018-06-15T04:07:06.970Z,100.00
2018-06-15T04:09:36.123Z,99.59
2018-06-15T04:12:05.319Z,99.08
2018-06-15T04:14:34.491Z,98.85
2018-06-15T04:17:03.662Z,98.85
2018-06-15T04:19:32.834Z,98.57
2018-06-15T04:22:02.008Z,98.29
2018-06-15T04:24:31.167Z,97.99
2018-06-15T04:27:00.349Z,97.83
2018-06-15T04:29:29.489Z,97.31
2018-06-15T04:31:59.672Z,97.52
2018-06-15T04:34:28.799Z,97.23
2018-06-15T04:36:57.984Z,96.98
2018-06-15T04:39:27.136Z,96.10
2018-06-15T04:41:56.259Z,96.19
2018-06-15T04:44:25.440Z,95.62
2018-06-15T04:46:54.585Z,95.73
2018-06-15T04:49:23.803Z,95.84
2018-06-15T04:51:52.988Z,95.88
2018-06-15T04:54:22.227Z,96.00
2018-06-15T04:56:51.613Z,96.37
2018-06-15T04:59:21.000Z,95.69
2018-06-15T05:01:50.155Z,96.05
2018-06-15T05:04:19.851Z,96.38
2018-06-15T05:06:49.033Z,96.35
2018-06-15T05:09:20.153Z,96.05
2018-06-15T05:11:49.638Z,96.34
2018-06-15T05:14:18.812Z,96.07
2018-06-15T05:16:48.083Z,95.85
2018-06-15T05:19:17.293Z,96.21
2018-06-15T05:21:46.483Z,95.61
2018-06-15T05:24:15.923Z,96.04
2018-06-15T05:26:45.109Z,95.44
2018-06-15T05:29:14.321Z,94.72
2018-06-15T05:31:43.486Z,94.01
2018-06-15T05:34:12.624Z,93.01
2018-06-15T05:36:41.874Z,93.17
2018-06-15T05:39:11.889Z,92.71
2018-06-15T05:41:41.084Z,92.11
2018-06-15T05:44:10.248Z,92.31
2018-06-15T05:46:39.440Z,92.30
2018-06-15T05:49:08.679Z,91.74
2018-06-15T05:51:37.894Z,91.68
2018-06-15T05:54:07.124Z,90.91
2018-06-15T05:56:36.318Z,90.38
2018-06-15T05:59:05.599Z,89.72
2018-06-15T06:01:34.782Z,89.96
2018-06-15T06:04:04.114Z,90.04
2018-06-15T06:06:33.252Z,89.14
2018-06-15T06:09:02.423Z,89.30
2018-06-15T06:11:31.645Z,88.46
2018-06-15T06:14:00.810Z,88.09
2018-06-15T06:16:30.038Z,86.49
2018-06-15T06:18:59.240Z,86.09
2018-06-15T06:21:28.452Z,86.24
2018-06-15T06:23:57.912Z,86.95
2018-06-15T06:26:27.472Z,87.53
2018-06-15T06:28:56.642Z,86.11
2018-06-15T06:31:25.818Z,86.01
2018-06-15T06:33:55.041Z,85.61
2018-06-15T06:36:24.232Z,85.87
2018-06-15T06:38:53.404Z,86.32
2018-06-15T06:41:22.644Z,86.77
2018-06-15T06:43:51.839Z,86.12
2018-06-15T06:46:20.968Z,84.77
2018-06-15T06:48:50.224Z,84.14
2018-06-15T06:51:19.432Z,83.17
2018-06-15T06:53:48.625Z,83.38
2018-06-15T06:56:17.818Z,83.10
2018-06-15T06:58:47.118Z,82.90
2018-06-15T07:01:16.311Z,83.21
2018-06-15T07:03:45.526Z,83.83
2018-06-15T07:06:14.706Z,82.28
2018-06-15T07:08:44.283Z,82.60
2018-06-15T07:11:13.686Z,81.92
2018-06-15T07:13:42.930Z,80.68
2018-06-15T07:16:12.093Z,78.87
2018-06-15T07:18:41.716Z,78.68
2018-06-15T07:21:10.907Z,79.28
2018-06-15T07:23:40.231Z,77.46
2018-06-15T07:26:09.435Z,77.94
2018-06-15T07:28:38.668Z,78.31
2018-06-15T07:31:07.890Z,77.68
2018-06-15T07:33:37.341Z,75.79
2018-06-15T07:36:06.520Z,75.62
2018-06-15T07:38:35.768Z,75.66
2018-06-15T07:41:04.979Z,74.31
2018-06-15T07:43:34.182Z,72.75
2018-06-15T07:46:03.535Z,73.28
2018-06-15T07:48:32.693Z,73.17
2018-06-15T07:51:01.871Z,72.01
2018-06-15T07:53:31.189Z,72.07
2018-06-15T07:56:00.480Z,72.42
2018-06-15T07:58:29.657Z,70.61
2018-06-15T08:00:58.986Z,70.73
2018-06-15T08:03:28.265Z,69.66
2018-06-15T08:05:57.448Z,69.61
2018-06-15T08:08:26.683Z,71.55
2018-06-15T08:10:56.004Z,69.67
2018-06-15T08:13:25.184Z,68.55
2018-06-15T08:15:54.478Z,69.30
2018-06-15T08:18:23.699Z,69.67
2018-06-15T08:20:54.007Z,68.74
2018-06-15T08:23:23.196Z,69.47
2018-06-15T08:25:52.426Z,67.75
2018-06-15T08:28:21.667Z,66.70
2018-06-15T08:30:50.890Z,68.06
2018-06-15T08:33:20.046Z,68.62
2018-06-15T08:35:49.552Z,68.21
2018-06-15T08:38:18.888Z,69.37
2018-06-15T08:40:48.162Z,66.76
2018-06-15T08:43:17.494Z,66.48
2018-06-15T08:45:46.701Z,65.23
2018-06-15T08:48:15.957Z,65.60
2018-06-15T08:50:45.302Z,64.82
2018-06-15T08:53:14.862Z,64.48
2018-06-15T08:55:44.348Z,64.34
2018-06-15T08:58:13.698Z,62.52
2018-06-15T09:00:42.945Z,62.89
2018-06-15T09:03:13.204Z,61.90
2018-06-15T09:05:42.635Z,60.58
2018-06-15T09:08:12.104Z,59.18
2018-06-15T09:10:41.475Z,58.56
2018-06-15T09:13:10.781Z,58.47
2018-06-15T09:15:40.155Z,58.46
2018-06-15T09:18:09.505Z,57.99
2018-06-15T09:20:38.860Z,56.49
2018-06-15T09:23:08.111Z,55.04
2018-06-15T09:25:37.503Z,53.89
2018-06-15T09:28:06.914Z,53.11
2018-06-15T09:30:36.217Z,52.67
2018-06-15T09:33:05.471Z,55.58
2018-06-15T09:35:34.710Z,55.90
2018-06-15T09:38:04.054Z,56.73
2018-06-15T09:40:33.408Z,55.78
2018-06-15T09:43:02.633Z,54.00
2018-06-15T09:45:32.049Z,55.23
2018-06-15T09:48:01.418Z,55.20
2018-06-15T09:50:30.742Z,54.95
2018-06-15T09:53:00.017Z,53.29
2018-06-15T09:55:29.314Z,53.91
2018-06-15T09:57:58.643Z,54.71
2018-06-15T10:00:33.174Z,56.13
2018-06-15T10:03:02.470Z,56.85
2018-06-15T10:05:31.919Z,57.91
2018-06-15T10:08:01.168Z,56.41
2018-06-15T10:10:30.473Z,54.35
2018-06-15T10:12:59.874Z,54.53
2018-06-15T10:15:29.255Z,55.67
2018-06-15T10:17:58.572Z,55.48
2018-06-15T10:20:29.034Z,54.83
2018-06-15T10:22:58.308Z,54.31
2018-06-15T10:25:27.522Z,55.18
2018-06-15T10:27:56.760Z,53.53
2018-06-15T10:30:26.183Z,52.65
2018-06-15T10:32:55.562Z,53.04
2018-06-15T10:35:24.859Z,51.69
2018-06-15T10:37:54.329Z,51.62
2018-06-15T10:40:23.665Z,52.90
2018-06-15T10:42:53.103Z,51.74
2018-06-15T10:45:23.276Z,52.18
2018-06-15T10:47:52.746Z,53.02
2018-06-15T10:50:22.136Z,51.94
2018-06-15T10:52:51.362Z,51.41
2018-06-15T10:55:20.822Z,50.01
2018-06-15T10:57:50.021Z,49.57
2018-06-15T11:00:19.372Z,49.74
2018-06-15T11:02:48.716Z,50.47
2018-06-15T11:05:18.074Z,51.24
2018-06-15T11:07:47.344Z,51.68
2018-06-15T11:10:16.582Z,52.49
2018-06-15T11:12:45.878Z,52.82
2018-06-15T11:15:15.099Z,51.38
2018-06-15T11:17:44.418Z,51.33
2018-06-15T11:20:13.612Z,50.37
2018-06-15T11:22:42.942Z,51.40
2018-06-15T11:25:12.235Z,52.56
2018-06-15T11:27:41.480Z,51.46
2018-06-15T11:30:10.799Z,51.30
2018-06-15T11:32:40.031Z,50.24
2018-06-15T11:35:09.302Z,50.54
2018-06-15T11:37:38.484Z,48.81
2018-06-15T11:40:07.641Z,47.93
2018-06-15T11:42:36.860Z,48.12
2018-06-15T11:45:06.130Z,48.71
2018-06-15T11:47:35.512Z,47.63
2018-06-15T11:50:04.955Z,47.04
2018-06-15T11:52:34.069Z,43.92
2018-06-15T11:55:03.379Z,43.10
2018-06-15T11:57:32.642Z,41.44
2018-06-15T12:00:01.832Z,40.98
2018-06-15T12:02:31.003Z,40.03
2018-06-15T12:05:00.310Z,39.65
2018-06-15T12:07:29.793Z,41.90
2018-06-15T12:09:58.997Z,40.28
2018-06-15T12:12:28.259Z,39.33
2018-06-15T12:14:57.392Z,38.79
2018-06-15T12:17:26.629Z,40.66
2018-06-15T12:19:55.992Z,39.40
2018-06-15T12:22:25.336Z,37.79
2018-06-15T12:24:54.576Z,37.62
2018-06-15T12:27:23.770Z,36.88
2018-06-15T12:29:53.048Z,37.14
2018-06-15T12:32:22.369Z,37.12
2018-06-15T12:34:51.630Z,38.13
2018-06-15T12:37:20.838Z,35.98
2018-06-15T12:39:50.675Z,36.55
2018-06-15T12:42:19.931Z,37.59
2018-06-15T12:44:49.186Z,38.23
2018-06-15T12:47:18.541Z,38.40
2018-06-15T12:49:47.826Z,38.86
2018-06-15T12:52:17.041Z,39.87
2018-06-15T12:54:46.645Z,40.03
2018-06-15T12:57:15.955Z,38.54
2018-06-15T12:59:45.136Z,37.22
2018-06-15T13:02:14.433Z,37.08
2018-06-15T13:04:43.634Z,35.17
2018-06-15T13:07:12.876Z,35.18
2018-06-15T13:09:42.060Z,35.47
2018-06-15T13:12:12.070Z,35.68
2018-06-15T13:14:41.318Z,34.66
2018-06-15T13:17:10.556Z,34.44
2018-06-15T13:19:39.851Z,34.25
2018-06-15T13:22:09.495Z,36.38
2018-06-15T13:24:38.706Z,35.32
2018-06-15T13:27:08.061Z,36.07
2018-06-15T13:29:37.384Z,36.67
2018-06-15T13:32:06.769Z,39.01
2018-06-15T13:34:35.971Z,38.78
2018-06-15T13:37:05.478Z,37.45
2018-06-15T13:39:34.858Z,37.60
2018-06-15T13:42:04.250Z,35.00
2018-06-15T13:44:33.642Z,34.20
2018-06-15T13:47:03.278Z,35.19
2018-06-15T13:49:32.413Z,35.04
2018-06-15T13:52:01.767Z,36.47
2018-06-15T13:54:30.973Z,37.70
2018-06-15T13:57:00.169Z,37.79
2018-06-15T13:59:29.300Z,37.59
2018-06-15T14:01:58.428Z,38.01
2018-06-15T14:04:28.163Z,35.87
2018-06-15T14:06:57.484Z,34.47
2018-06-15T14:09:26.618Z,36.10
2018-06-15T14:11:55.861Z,35.65
2018-06-15T14:14:25.100Z,37.07
2018-06-15T14:16:54.412Z,36.82
2018-06-15T14:19:23.704Z,37.39
2018-06-15T14:21:53.199Z,37.15
2018-06-15T14:24:22.915Z,37.04
2018-06-15T14:26:52.221Z,35.09
2018-06-15T14:29:21.450Z,33.35
2018-06-15T14:31:50.715Z,32.82
2018-06-15T14:34:19.943Z,33.44
2018-06-15T14:36:49.108Z,33.13
2018-06-15T14:39:18.349Z,33.93
2018-06-15T14:41:47.554Z,32.08
2018-06-15T14:44:16.802Z,32.28
2018-06-15T14:46:46.005Z,32.77
2018-06-15T14:49:15.201Z,33.53
2018-06-15T14:51:44.346Z,34.57
2018-06-15T14:54:13.592Z,37.19
2018-06-15T14:56:43.162Z,38.13
2018-06-15T14:59:12.286Z,39.37
2018-06-15T15:01:41.573Z,39.50
2018-06-15T15:04:10.792Z,37.24
2018-06-15T15:06:39.988Z,37.60
2018-06-15T15:09:09.671Z,36.01
2018-06-15T15:11:38.867Z,35.50
2018-06-15T15:14:08.112Z,36.12
2018-06-15T15:16:37.509Z,36.18
2018-06-15T15:19:06.850Z,35.73
2018-06-15T15:21:36.156Z,36.30
2018-06-15T15:24:05.501Z,34.86
2018-06-15T15:26:34.800Z,35.13
2018-06-15T15:29:04.980Z,35.34
2018-06-15T15:31:34.903Z,36.58
2018-06-15T15:34:04.140Z,36.70
2018-06-15T15:36:33.387Z,37.43
2018-06-15T15:39:02.688Z,37.59
2018-06-15T15:41:31.913Z,39.02
2018-06-15T15:44:01.207Z,40.04
2018-06-15T15:46:30.435Z,40.53
2018-06-15T15:48:59.657Z,40.75
2018-06-15T15:51:28.926Z,40.13
2018-06-15T15:53:58.348Z,38.32
2018-06-15T15:56:27.623Z,38.32
2018-06-15T15:58:57.204Z,37.68
2018-06-15T16:01:26.598Z,37.27
2018-06-15T16:03:55.729Z,37.15
2018-06-15T16:06:25.737Z,37.06
2018-06-15T16:08:55.007Z,36.97
2018-06-15T16:11:24.242Z,37.67
2018-06-15T16:13:53.562Z,37.89
2018-06-15T16:16:22.778Z,37.91
2018-06-15T16:18:51.923Z,38.05
2018-06-15T16:21:21.686Z,38.45
2018-06-15T16:23:50.933Z,39.29
2018-06-15T16:26:20.111Z,40.17
2018-06-15T16:28:49.340Z,40.08
2018-06-15T16:31:18.568Z,41.45
2018-06-15T16:33:47.823Z,40.34
2018-06-15T16:36:17.126Z,40.94
2018-06-15T16:38:46.332Z,40.94
2018-06-15T16:41:15.529Z,40.44
2018-06-15T16:43:44.930Z,40.56
2018-06-15T16:46:14.253Z,41.27
2018-06-15T16:48:43.444Z,40.55
2018-06-15T16:51:12.672Z,42.90
2018-06-15T16:53:41.846Z,40.49
2018-06-15T16:56:11.546Z,40.59
2018-06-15T16:58:40.813Z,40.43
2018-06-15T17:01:09.999Z,40.04
2018-06-15T17:03:39.198Z,40.82
2018-06-15T17:06:08.363Z,40.47
2018-06-15T17:08:37.702Z,41.52
2018-06-15T17:11:06.861Z,40.90
2018-06-15T17:13:36.035Z,41.12
2018-06-15T17:16:05.622Z,41.73
2018-06-15T17:18:34.941Z,41.05
2018-06-15T17:21:04.140Z,40.84
2018-06-15T17:23:33.256Z,41.15
2018-06-15T17:26:02.722Z,41.12
2018-06-15T17:28:31.914Z,40.93
2018-06-15T17:31:01.152Z,40.92
2018-06-15T17:33:30.311Z,40.94
2018-06-15T17:35:59.513Z,41.43
2018-06-15T17:38:28.657Z,40.93
2018-06-15T17:40:58.003Z,40.70
2018-06-15T17:43:27.224Z,40.31
2018-06-15T17:45:56.418Z,40.55
2018-06-15T17:48:25.577Z,40.51
2018-06-15T17:50:54.811Z,41.04
2018-06-15T17:53:23.991Z,46.64
2018-06-15T17:55:53.320Z,41.77
2018-06-15T17:58:22.507Z,41.34
2018-06-15T18:00:51.794Z,41.51
2018-06-15T18:03:21.149Z,41.29
2018-06-15T18:05:50.419Z,40.87
2018-06-15T18:08:19.591Z,40.95
2018-06-15T18:10:48.750Z,41.01
2018-06-15T18:13:18.043Z,41.54
2018-06-15T18:15:47.260Z,41.67
2018-06-15T18:18:16.402Z,41.52
2018-06-15T18:20:45.555Z,42.44
2018-06-15T18:23:14.852Z,41.40
2018-06-15T18:25:44.044Z,42.67
2018-06-15T18:28:13.225Z,41.85
2018-06-15T18:30:42.371Z,41.62
2018-06-15T18:33:11.582Z,42.21
2018-06-15T18:35:40.755Z,42.68
2018-06-15T18:38:09.858Z,41.48
2018-06-15T18:40:39.098Z,40.82
2018-06-15T18:43:08.370Z,41.27
2018-06-15T18:45:37.516Z,41.71
2018-06-15T18:48:06.837Z,41.64
2018-06-15T18:50:36.021Z,41.08
2018-06-15T18:53:05.263Z,40.79
2018-06-15T18:55:35.065Z,40.65
2018-06-15T18:58:07.267Z,40.84
2018-06-15T19:00:36.427Z,41.02
2018-06-15T19:03:06.001Z,40.51
2018-06-15T19:05:35.170Z,40.06
2018-06-15T19:08:04.450Z,40.01
2018-06-15T19:10:33.674Z,39.89
2018-06-15T19:13:02.907Z,39.86
2018-06-15T19:15:32.176Z,40.05
2018-06-15T19:18:01.435Z,40.29
2018-06-15T19:20:30.681Z,40.48
2018-06-15T19:22:59.923Z,40.37
2018-06-15T19:25:29.048Z,39.83
2018-06-15T19:27:58.201Z,39.93
2018-06-15T19:30:27.429Z,39.15
2018-06-15T19:32:56.612Z,39.97
2018-06-15T19:35:25.817Z,40.07
2018-06-15T19:37:55.030Z,40.48
2018-06-15T19:40:24.251Z,40.53
2018-06-15T19:42:53.497Z,40.44
2018-06-15T19:45:22.790Z,40.74
2018-06-15T19:47:52.021Z,40.90
2018-06-15T19:50:21.230Z,40.86
2018-06-15T19:52:50.423Z,41.06
2018-06-15T19:55:19.600Z,41.51
2018-06-15T19:57:48.811Z,41.65
2018-06-15T20:00:18.136Z,42.19
2018-06-15T20:02:47.522Z,42.65
2018-06-15T20:05:16.746Z,43.44
2018-06-15T20:07:45.930Z,43.01
2018-06-15T20:10:15.239Z,43.40
2018-06-15T20:12:44.551Z,43.41
2018-06-15T20:15:13.756Z,43.44
2018-06-15T20:17:42.929Z,43.99
2018-06-15T20:20:12.142Z,43.91
2018-06-15T20:22:41.296Z,44.05
2018-06-15T20:25:10.449Z,44.02
2018-06-15T20:27:39.797Z,44.08
2018-06-15T20:30:09.467Z,44.57
2018-06-15T20:32:38.646Z,44.19
2018-06-15T20:35:07.872Z,45.37
2018-06-15T20:37:37.040Z,44.76
2018-06-15T20:40:06.231Z,44.47
2018-06-15T20:42:35.336Z,44.36
2018-06-15T20:45:04.591Z,44.75
2018-06-15T20:47:33.736Z,44.71
2018-06-15T20:50:03.109Z,45.53
2018-06-15T20:52:32.355Z,45.90
2018-06-15T20:55:01.554Z,45.40
2018-06-15T20:57:30.757Z,45.99
2018-06-15T20:59:59.982Z,46.39
2018-06-15T21:02:29.142Z,47.30
2018-06-15T21:04:58.363Z,47.68
2018-06-15T21:07:27.619Z,48.04
2018-06-15T21:09:56.834Z,48.47
2018-06-15T21:12:26.016Z,49.09
2018-06-15T21:14:55.176Z,49.17
2018-06-15T21:17:24.352Z,49.50
2018-06-15T21:19:53.552Z,49.29
2018-06-15T21:22:22.785Z,49.34
2018-06-15T21:24:52.003Z,49.67
2018-06-15T21:27:21.145Z,49.83
2018-06-15T21:29:57.002Z,49.93
2018-06-15T21:32:26.125Z,50.06
2018-06-15T21:34:55.269Z,51.29
2018-06-15T21:37:24.549Z,50.62
2018-06-15T21:39:53.733Z,49.90
2018-06-15T21:42:22.891Z,51.50
2018-06-15T21:44:52.084Z,50.82
2018-06-15T21:47:21.232Z,50.43
2018-06-15T21:49:50.399Z,50.28
2018-06-15T21:52:19.663Z,50.50
2018-06-15T21:54:48.811Z,50.70
2018-06-15T21:57:17.979Z,51.29
2018-06-15T21:59:47.232Z,51.72
2018-06-15T22:02:16.544Z,52.04
2018-06-15T22:04:45.710Z,52.69
2018-06-15T22:07:14.869Z,52.92
2018-06-15T22:09:44.080Z,53.48
2018-06-15T22:12:13.231Z,53.68
2018-06-15T22:14:42.641Z,54.68
2018-06-15T22:17:11.847Z,55.01
2018-06-15T22:19:41.053Z,55.51
2018-06-15T22:22:10.225Z,55.59
2018-06-15T22:24:39.391Z,56.48
2018-06-15T22:27:08.594Z,56.80
2018-06-15T22:29:37.815Z,57.35
2018-06-15T22:32:06.995Z,57.39
2018-06-15T22:34:36.232Z,58.19
2018-06-15T22:37:05.404Z,58.43
2018-06-15T22:39:34.577Z,58.66
2018-06-15T22:42:04.017Z,59.46
2018-06-15T22:44:33.288Z,59.89
2018-06-15T22:47:02.454Z,60.26
2018-06-15T22:49:31.576Z,60.82
2018-06-15T22:52:00.783Z,61.52
2018-06-15T22:54:30.018Z,61.99
2018-06-15T22:56:59.281Z,62.34
2018-06-15T22:59:28.428Z,62.15
2018-06-15T23:01:57.671Z,62.54
2018-06-15T23:04:26.905Z,62.95
2018-06-15T23:06:56.222Z,63.62
2018-06-15T23:09:25.454Z,63.53
2018-06-15T23:11:54.647Z,63.75
2018-06-15T23:14:23.918Z,63.62
2018-06-15T23:16:53.120Z,64.21
2018-06-15T23:19:22.304Z,64.90
2018-06-15T23:21:51.539Z,65.13
2018-06-15T23:24:20.833Z,65.30
2018-06-15T23:26:50.058Z,65.62
2018-06-15T23:29:19.260Z,65.59
2018-06-15T23:31:48.453Z,66.18
2018-06-15T23:34:17.635Z,65.92
2018-06-15T23:36:46.896Z,66.24
2018-06-15T23:39:16.921Z,66.85
2018-06-15T23:41:46.109Z,67.38
2018-06-15T23:44:15.302Z,67.19
2018-06-15T23:46:44.509Z,67.80
2018-06-15T23:49:13.651Z,68.13
2018-06-15T23:51:42.856Z,68.12
2018-06-15T23:54:12.110Z,69.05
2018-06-15T23:56:41.305Z,68.53
2018-06-15T23:59:10.815Z,68.12
